sensor_id;sensor_type;location;lat;lon;timestamp;temperature;humidity
25482;DHT22;13395;50.752;4.268;2022-12-29T00:02:07;12.00;99.90
25482;DHT22;13395;50.752;4.268;2022-12-29T00:04:32;12.00;99.90
25482;DHT22;13395;50.752;4.268;2022-12-29T00:06:58;12.00;99.90
25482;DHT22;13395;50.752;4.268;2022-12-29T00:09:23;12.00;99.90
25482;DHT22;13395;50.752;4.268;2022-12-29T00:11:49;12.00;99.90
25482;DHT22;13395;50.752;4.268;2022-12-29T00:14:15;12.10;99.90
25482;DHT22;13395;50.752;4.268;2022-12-29T00:16:59;12.10;99.90
25482;DHT22;13395;50.752;4.268;2022-12-29T00:19:25;12.10;99.90
25482;DHT22;13395;50.752;4.268;2022-12-29T00:22:10;12.20;99.90
25482;DHT22;13395;50.752;4.268;2022-12-29T00:24:54;12.20;99.90
25482;DHT22;13395;50.752;4.268;2022-12-29T00:27:38;12.20;99.90
25482;DHT22;13395;50.752;4.268;2022-12-29T00:30:23;12.30;99.90
25482;DHT22;13395;50.752;4.268;2022-12-29T00:33:11;12.20;99.90
25482;DHT22;13395;50.752;4.268;2022-12-29T00:36:03;12.30;99.90
25482;DHT22;13395;50.752;4.268;2022-12-29T00:38:31;12.40;99.90
25482;DHT22;13395;50.752;4.268;2022-12-29T00:41:16;12.40;99.90
25482;DHT22;13395;50.752;4.268;2022-12-29T00:44:00;12.50;99.90
25482;DHT22;13395;50.752;4.268;2022-12-29T00:46:35;12.40;99.90
25482;DHT22;13395;50.752;4.268;2022-12-29T00:49:01;12.30;99.90
25482;DHT22;13395;50.752;4.268;2022-12-29T00:51:46;12.40;99.90
25482;DHT22;13395;50.752;4.268;2022-12-29T00:54:12;12.40;99.90
25482;DHT22;13395;50.752;4.268;2022-12-29T00:56:37;12.40;99.90
25482;DHT22;13395;50.752;4.268;2022-12-29T00:59:04;12.40;99.90
25482;DHT22;13395;50.752;4.268;2022-12-29T01:01:29;12.50;99.90
25482;DHT22;13395;50.752;4.268;2022-12-29T01:03:55;12.40;99.90
25482;DHT22;13395;50.752;4.268;2022-12-29T01:06:20;12.30;99.90
25482;DHT22;13395;50.752;4.268;2022-12-29T01:08:46;12.20;99.90
25482;DHT22;13395;50.752;4.268;2022-12-29T01:11:12;12.20;99.90
25482;DHT22;13395;50.752;4.268;2022-12-29T01:13:38;12.00;99.90
25482;DHT22;13395;50.752;4.268;2022-12-29T01:16:04;12.00;99.90
25482;DHT22;13395;50.752;4.268;2022-12-29T01:18:30;11.90;99.90
25482;DHT22;13395;50.752;4.268;2022-12-29T01:21:03;11.90;99.90
25482;DHT22;13395;50.752;4.268;2022-12-29T01:23:29;11.80;99.90
25482;DHT22;13395;50.752;4.268;2022-12-29T01:25:55;11.90;99.90
25482;DHT22;13395;50.752;4.268;2022-12-29T01:28:20;11.90;99.90
25482;DHT22;13395;50.752;4.268;2022-12-29T01:30:46;11.80;99.90
25482;DHT22;13395;50.752;4.268;2022-12-29T01:33:12;11.80;99.90
25482;DHT22;13395;50.752;4.268;2022-12-29T01:35:37;11.70;99.90
25482;DHT22;13395;50.752;4.268;2022-12-29T01:38:03;11.60;99.90
25482;DHT22;13395;50.752;4.268;2022-12-29T01:40:28;11.60;99.90
25482;DHT22;13395;50.752;4.268;2022-12-29T01:42:54;11.60;99.90
25482;DHT22;13395;50.752;4.268;2022-12-29T01:45:19;11.50;99.90
25482;DHT22;13395;50.752;4.268;2022-12-29T01:48:03;11.50;99.90
25482;DHT22;13395;50.752;4.268;2022-12-29T01:50:33;11.60;99.90
25482;DHT22;13395;50.752;4.268;2022-12-29T01:53:04;11.50;99.90
25482;DHT22;13395;50.752;4.268;2022-12-29T01:55:32;11.50;99.90
25482;DHT22;13395;50.752;4.268;2022-12-29T01:57:59;11.50;99.90
25482;DHT22;13395;50.752;4.268;2022-12-29T02:00:26;11.50;99.90
25482;DHT22;13395;50.752;4.268;2022-12-29T02:02:52;11.50;99.90
25482;DHT22;13395;50.752;4.268;2022-12-29T02:05:20;11.40;99.90
25482;DHT22;13395;50.752;4.268;2022-12-29T02:07:46;11.40;99.90
25482;DHT22;13395;50.752;4.268;2022-12-29T02:10:12;11.40;99.90
25482;DHT22;13395;50.752;4.268;2022-12-29T02:12:38;11.30;99.90
25482;DHT22;13395;50.752;4.268;2022-12-29T02:15:03;11.30;99.90
25482;DHT22;13395;50.752;4.268;2022-12-29T02:23:00;11.30;99.90
25482;DHT22;13395;50.752;4.268;2022-12-29T02:25:38;11.20;99.90
25482;DHT22;13395;50.752;4.268;2022-12-29T02:30:42;11.20;99.90
25482;DHT22;13395;50.752;4.268;2022-12-29T02:33:13;11.30;99.90
25482;DHT22;13395;50.752;4.268;2022-12-29T02:40:39;11.20;99.90
25482;DHT22;13395;50.752;4.268;2022-12-29T02:45:50;11.10;99.90
25482;DHT22;13395;50.752;4.268;2022-12-29T02:51:02;10.80;99.90
25482;DHT22;13395;50.752;4.268;2022-12-29T02:53:28;10.80;99.90
25482;DHT22;13395;50.752;4.268;2022-12-29T02:56:13;10.80;99.90
25482;DHT22;13395;50.752;4.268;2022-12-29T02:58:39;10.70;99.90
25482;DHT22;13395;50.752;4.268;2022-12-29T03:03:41;10.60;99.90
25482;DHT22;13395;50.752;4.268;2022-12-29T03:08:59;10.50;99.90
25482;DHT22;13395;50.752;4.268;2022-12-29T03:11:30;10.60;99.90
25482;DHT22;13395;50.752;4.268;2022-12-29T03:14:22;10.60;99.90
25482;DHT22;13395;50.752;4.268;2022-12-29T03:17:14;10.60;99.90
25482;DHT22;13395;50.752;4.268;2022-12-29T03:19:44;10.70;99.90
25482;DHT22;13395;50.752;4.268;2022-12-29T03:22:17;10.60;99.90
25482;DHT22;13395;50.752;4.268;2022-12-29T03:24:57;10.60;99.90
25482;DHT22;13395;50.752;4.268;2022-12-29T03:27:24;10.70;99.90
25482;DHT22;13395;50.752;4.268;2022-12-29T03:29:52;10.70;99.90
25482;DHT22;13395;50.752;4.268;2022-12-29T03:32:20;10.70;99.90
25482;DHT22;13395;50.752;4.268;2022-12-29T03:34:47;10.70;99.90
25482;DHT22;13395;50.752;4.268;2022-12-29T03:37:15;10.80;99.90
25482;DHT22;13395;50.752;4.268;2022-12-29T03:39:41;10.80;99.90
25482;DHT22;13395;50.752;4.268;2022-12-29T03:42:09;10.80;99.90
25482;DHT22;13395;50.752;4.268;2022-12-29T03:44:37;10.80;99.90
25482;DHT22;13395;50.752;4.268;2022-12-29T03:47:04;10.80;99.90
25482;DHT22;13395;50.752;4.268;2022-12-29T03:49:30;10.70;99.90
25482;DHT22;13395;50.752;4.268;2022-12-29T03:51:56;10.70;99.90
25482;DHT22;13395;50.752;4.268;2022-12-29T03:54:21;10.60;99.90
25482;DHT22;13395;50.752;4.268;2022-12-29T03:56:47;10.60;99.90
25482;DHT22;13395;50.752;4.268;2022-12-29T03:59:12;10.60;99.90
25482;DHT22;13395;50.752;4.268;2022-12-29T04:01:38;10.60;99.90
25482;DHT22;13395;50.752;4.268;2022-12-29T04:04:03;10.60;99.90
25482;DHT22;13395;50.752;4.268;2022-12-29T04:06:29;10.60;99.90
25482;DHT22;13395;50.752;4.268;2022-12-29T04:08:54;10.60;99.90
25482;DHT22;13395;50.752;4.268;2022-12-29T04:11:20;10.50;99.90
25482;DHT22;13395;50.752;4.268;2022-12-29T04:13:46;10.50;99.90
25482;DHT22;13395;50.752;4.268;2022-12-29T04:16:11;10.50;99.90
25482;DHT22;13395;50.752;4.268;2022-12-29T04:18:37;10.50;99.90
25482;DHT22;13395;50.752;4.268;2022-12-29T04:21:03;10.40;99.90
25482;DHT22;13395;50.752;4.268;2022-12-29T04:23:30;10.40;99.90
25482;DHT22;13395;50.752;4.268;2022-12-29T04:25:55;10.40;99.90
25482;DHT22;13395;50.752;4.268;2022-12-29T04:28:21;10.50;99.90
25482;DHT22;13395;50.752;4.268;2022-12-29T04:30:46;10.50;99.90
25482;DHT22;13395;50.752;4.268;2022-12-29T04:33:12;10.60;99.90
25482;DHT22;13395;50.752;4.268;2022-12-29T04:35:37;10.60;99.90
25482;DHT22;13395;50.752;4.268;2022-12-29T04:38:03;10.50;99.90
25482;DHT22;13395;50.752;4.268;2022-12-29T04:40:29;10.50;99.90
25482;DHT22;13395;50.752;4.268;2022-12-29T04:42:54;10.60;99.90
25482;DHT22;13395;50.752;4.268;2022-12-29T04:45:21;10.70;99.90
25482;DHT22;13395;50.752;4.268;2022-12-29T04:47:46;10.80;99.90
25482;DHT22;13395;50.752;4.268;2022-12-29T04:50:12;10.80;99.90
25482;DHT22;13395;50.752;4.268;2022-12-29T04:52:37;10.80;99.90
25482;DHT22;13395;50.752;4.268;2022-12-29T04:55:03;10.90;99.90
25482;DHT22;13395;50.752;4.268;2022-12-29T04:57:29;10.90;99.90
25482;DHT22;13395;50.752;4.268;2022-12-29T04:59:54;11.00;99.90
25482;DHT22;13395;50.752;4.268;2022-12-29T05:02:20;11.00;99.90
25482;DHT22;13395;50.752;4.268;2022-12-29T05:04:45;11.00;99.90
25482;DHT22;13395;50.752;4.268;2022-12-29T05:07:11;11.10;99.90
25482;DHT22;13395;50.752;4.268;2022-12-29T05:09:37;11.00;99.90
25482;DHT22;13395;50.752;4.268;2022-12-29T05:12:03;11.00;99.90
25482;DHT22;13395;50.752;4.268;2022-12-29T05:14:28;11.10;99.90
25482;DHT22;13395;50.752;4.268;2022-12-29T05:16:54;11.10;99.90
25482;DHT22;13395;50.752;4.268;2022-12-29T05:19:20;11.10;99.90
25482;DHT22;13395;50.752;4.268;2022-12-29T05:21:46;11.20;99.90
25482;DHT22;13395;50.752;4.268;2022-12-29T05:24:11;11.20;99.90
25482;DHT22;13395;50.752;4.268;2022-12-29T05:26:37;11.20;99.90
25482;DHT22;13395;50.752;4.268;2022-12-29T05:29:02;11.30;99.90
25482;DHT22;13395;50.752;4.268;2022-12-29T05:31:28;11.30;99.90
25482;DHT22;13395;50.752;4.268;2022-12-29T05:33:53;11.30;99.90
25482;DHT22;13395;50.752;4.268;2022-12-29T05:36:19;11.30;99.90
25482;DHT22;13395;50.752;4.268;2022-12-29T05:38:45;11.30;99.90
25482;DHT22;13395;50.752;4.268;2022-12-29T05:41:10;11.30;99.90
25482;DHT22;13395;50.752;4.268;2022-12-29T05:43:36;11.30;99.90
25482;DHT22;13395;50.752;4.268;2022-12-29T05:46:01;11.30;99.90
25482;DHT22;13395;50.752;4.268;2022-12-29T05:48:27;11.30;99.90
25482;DHT22;13395;50.752;4.268;2022-12-29T05:50:53;11.30;99.90
25482;DHT22;13395;50.752;4.268;2022-12-29T05:53:18;11.20;99.90
25482;DHT22;13395;50.752;4.268;2022-12-29T05:55:45;11.20;99.90
25482;DHT22;13395;50.752;4.268;2022-12-29T05:58:11;11.10;99.90
25482;DHT22;13395;50.752;4.268;2022-12-29T06:00:36;11.20;99.90
25482;DHT22;13395;50.752;4.268;2022-12-29T06:03:02;11.20;99.90
25482;DHT22;13395;50.752;4.268;2022-12-29T06:05:27;11.20;99.90
25482;DHT22;13395;50.752;4.268;2022-12-29T06:07:53;11.10;99.90
25482;DHT22;13395;50.752;4.268;2022-12-29T06:10:18;11.10;99.90
25482;DHT22;13395;50.752;4.268;2022-12-29T06:12:44;11.10;99.90
25482;DHT22;13395;50.752;4.268;2022-12-29T06:15:10;11.10;99.90
25482;DHT22;13395;50.752;4.268;2022-12-29T06:17:35;11.10;99.90
25482;DHT22;13395;50.752;4.268;2022-12-29T06:20:01;11.10;99.90
25482;DHT22;13395;50.752;4.268;2022-12-29T06:22:27;11.10;99.90
25482;DHT22;13395;50.752;4.268;2022-12-29T06:24:53;11.10;99.90
25482;DHT22;13395;50.752;4.268;2022-12-29T06:27:19;11.10;99.90
25482;DHT22;13395;50.752;4.268;2022-12-29T06:29:44;11.20;99.90
25482;DHT22;13395;50.752;4.268;2022-12-29T06:32:10;11.20;99.90
25482;DHT22;13395;50.752;4.268;2022-12-29T06:34:35;11.20;99.90
25482;DHT22;13395;50.752;4.268;2022-12-29T06:37:01;11.30;99.90
25482;DHT22;13395;50.752;4.268;2022-12-29T06:39:27;11.30;99.90
25482;DHT22;13395;50.752;4.268;2022-12-29T06:41:52;11.40;99.90
25482;DHT22;13395;50.752;4.268;2022-12-29T06:44:19;11.40;99.90
25482;DHT22;13395;50.752;4.268;2022-12-29T06:46:45;11.40;99.90
25482;DHT22;13395;50.752;4.268;2022-12-29T06:49:10;11.40;99.90
25482;DHT22;13395;50.752;4.268;2022-12-29T06:51:36;11.40;99.90
25482;DHT22;13395;50.752;4.268;2022-12-29T06:54:01;11.40;99.90
25482;DHT22;13395;50.752;4.268;2022-12-29T06:56:27;11.40;99.90
25482;DHT22;13395;50.752;4.268;2022-12-29T06:58:52;11.30;99.90
25482;DHT22;13395;50.752;4.268;2022-12-29T07:01:18;11.40;99.90
25482;DHT22;13395;50.752;4.268;2022-12-29T07:03:44;11.40;99.90
25482;DHT22;13395;50.752;4.268;2022-12-29T07:06:09;11.30;99.90
25482;DHT22;13395;50.752;4.268;2022-12-29T07:08:35;11.30;99.90
25482;DHT22;13395;50.752;4.268;2022-12-29T07:11:00;11.30;99.90
25482;DHT22;13395;50.752;4.268;2022-12-29T07:13:26;11.30;99.90
25482;DHT22;13395;50.752;4.268;2022-12-29T07:15:51;11.30;99.90
25482;DHT22;13395;50.752;4.268;2022-12-29T07:18:17;11.30;99.90
25482;DHT22;13395;50.752;4.268;2022-12-29T07:20:42;11.30;99.90
25482;DHT22;13395;50.752;4.268;2022-12-29T07:23:08;11.30;99.90
25482;DHT22;13395;50.752;4.268;2022-12-29T07:25:33;11.40;99.90
25482;DHT22;13395;50.752;4.268;2022-12-29T07:28:01;11.40;99.90
25482;DHT22;13395;50.752;4.268;2022-12-29T07:30:27;11.40;99.90
25482;DHT22;13395;50.752;4.268;2022-12-29T07:32:54;11.40;99.90
25482;DHT22;13395;50.752;4.268;2022-12-29T07:35:20;11.30;99.90
25482;DHT22;13395;50.752;4.268;2022-12-29T07:37:45;11.30;99.90
25482;DHT22;13395;50.752;4.268;2022-12-29T07:40:11;11.30;99.90
25482;DHT22;13395;50.752;4.268;2022-12-29T07:42:36;11.30;99.90
25482;DHT22;13395;50.752;4.268;2022-12-29T07:45:02;11.30;99.90
25482;DHT22;13395;50.752;4.268;2022-12-29T07:47:27;11.40;99.90
25482;DHT22;13395;50.752;4.268;2022-12-29T07:49:53;11.40;99.90
25482;DHT22;13395;50.752;4.268;2022-12-29T07:52:18;11.40;99.90
25482;DHT22;13395;50.752;4.268;2022-12-29T07:54:44;11.40;99.90
25482;DHT22;13395;50.752;4.268;2022-12-29T07:57:10;11.40;99.90
25482;DHT22;13395;50.752;4.268;2022-12-29T07:59:35;11.30;99.90
25482;DHT22;13395;50.752;4.268;2022-12-29T08:02:01;11.40;99.90
25482;DHT22;13395;50.752;4.268;2022-12-29T08:04:26;11.40;99.90
25482;DHT22;13395;50.752;4.268;2022-12-29T08:06:52;11.30;99.90
25482;DHT22;13395;50.752;4.268;2022-12-29T08:09:17;11.30;99.90
25482;DHT22;13395;50.752;4.268;2022-12-29T08:11:43;11.30;99.90
25482;DHT22;13395;50.752;4.268;2022-12-29T08:14:09;11.40;99.90
25482;DHT22;13395;50.752;4.268;2022-12-29T08:16:35;11.30;99.90
25482;DHT22;13395;50.752;4.268;2022-12-29T08:19:00;11.30;99.90
25482;DHT22;13395;50.752;4.268;2022-12-29T08:21:29;11.50;99.90
25482;DHT22;13395;50.752;4.268;2022-12-29T08:23:54;11.40;99.90
25482;DHT22;13395;50.752;4.268;2022-12-29T08:26:20;11.30;99.90
25482;DHT22;13395;50.752;4.268;2022-12-29T08:28:45;11.30;99.90
25482;DHT22;13395;50.752;4.268;2022-12-29T08:31:11;11.30;99.90
25482;DHT22;13395;50.752;4.268;2022-12-29T08:33:36;11.20;99.90
25482;DHT22;13395;50.752;4.268;2022-12-29T08:36:03;11.30;99.90
25482;DHT22;13395;50.752;4.268;2022-12-29T08:38:29;11.30;99.90
25482;DHT22;13395;50.752;4.268;2022-12-29T08:40:55;11.30;99.90
25482;DHT22;13395;50.752;4.268;2022-12-29T08:43:21;11.30;99.90
25482;DHT22;13395;50.752;4.268;2022-12-29T08:45:46;11.30;99.90
25482;DHT22;13395;50.752;4.268;2022-12-29T08:48:12;11.30;99.90
25482;DHT22;13395;50.752;4.268;2022-12-29T08:50:37;11.20;99.90
25482;DHT22;13395;50.752;4.268;2022-12-29T08:53:03;11.30;99.90
25482;DHT22;13395;50.752;4.268;2022-12-29T08:55:28;11.40;99.90
25482;DHT22;13395;50.752;4.268;2022-12-29T08:57:54;11.30;99.90
25482;DHT22;13395;50.752;4.268;2022-12-29T09:00:19;11.40;99.90
25482;DHT22;13395;50.752;4.268;2022-12-29T09:02:46;11.40;99.90
25482;DHT22;13395;50.752;4.268;2022-12-29T09:05:11;11.50;99.90
25482;DHT22;13395;50.752;4.268;2022-12-29T09:07:37;11.50;99.90
25482;DHT22;13395;50.752;4.268;2022-12-29T09:10:02;11.50;99.90
25482;DHT22;13395;50.752;4.268;2022-12-29T09:12:28;11.50;99.90
25482;DHT22;13395;50.752;4.268;2022-12-29T09:14:53;11.50;99.90
25482;DHT22;13395;50.752;4.268;2022-12-29T09:17:19;11.60;99.90
25482;DHT22;13395;50.752;4.268;2022-12-29T09:20:03;11.70;99.90
25482;DHT22;13395;50.752;4.268;2022-12-29T09:22:29;11.80;99.90
25482;DHT22;13395;50.752;4.268;2022-12-29T09:24:55;11.90;99.90
25482;DHT22;13395;50.752;4.268;2022-12-29T09:27:20;11.90;99.90
25482;DHT22;13395;50.752;4.268;2022-12-29T09:29:46;11.90;99.90
25482;DHT22;13395;50.752;4.268;2022-12-29T09:32:11;12.00;99.90
25482;DHT22;13395;50.752;4.268;2022-12-29T09:34:37;12.10;99.90
25482;DHT22;13395;50.752;4.268;2022-12-29T09:37:02;12.20;99.90
25482;DHT22;13395;50.752;4.268;2022-12-29T09:39:28;12.20;99.90
25482;DHT22;13395;50.752;4.268;2022-12-29T09:47:22;11.90;99.90
25482;DHT22;13395;50.752;4.268;2022-12-29T09:52:36;11.50;99.90
25482;DHT22;13395;50.752;4.268;2022-12-29T09:55:13;11.60;99.90
25482;DHT22;13395;50.752;4.268;2022-12-29T09:57:47;11.60;99.90
25482;DHT22;13395;50.752;4.268;2022-12-29T10:00:20;11.60;99.90
25482;DHT22;13395;50.752;4.268;2022-12-29T10:02:52;11.60;99.90
25482;DHT22;13395;50.752;4.268;2022-12-29T10:07:49;11.90;99.90
25482;DHT22;13395;50.752;4.268;2022-12-29T10:10:20;11.90;99.90
25482;DHT22;13395;50.752;4.268;2022-12-29T10:15:33;11.90;99.90
25482;DHT22;13395;50.752;4.268;2022-12-29T10:23:21;11.80;99.90
25482;DHT22;13395;50.752;4.268;2022-12-29T10:25:47;11.80;99.90
25482;DHT22;13395;50.752;4.268;2022-12-29T10:28:47;11.80;99.90
25482;DHT22;13395;50.752;4.268;2022-12-29T10:31:29;11.80;99.90
25482;DHT22;13395;50.752;4.268;2022-12-29T10:33:53;11.70;99.90
25482;DHT22;13395;50.752;4.268;2022-12-29T10:36:24;11.90;99.90
25482;DHT22;13395;50.752;4.268;2022-12-29T10:41:38;12.00;99.90
25482;DHT22;13395;50.752;4.268;2022-12-29T10:44:04;11.90;99.90
25482;DHT22;13395;50.752;4.268;2022-12-29T10:46:33;12.00;99.90
25482;DHT22;13395;50.752;4.268;2022-12-29T10:48:59;12.10;99.90
25482;DHT22;13395;50.752;4.268;2022-12-29T10:51:31;12.00;99.90
25482;DHT22;13395;50.752;4.268;2022-12-29T10:58:50;12.10;99.90
25482;DHT22;13395;50.752;4.268;2022-12-29T11:01:16;12.10;99.90
25482;DHT22;13395;50.752;4.268;2022-12-29T11:06:47;11.90;99.90
25482;DHT22;13395;50.752;4.268;2022-12-29T11:09:14;12.00;99.90
25482;DHT22;13395;50.752;4.268;2022-12-29T11:11:40;12.00;99.90
25482;DHT22;13395;50.752;4.268;2022-12-29T11:14:13;12.00;99.90
25482;DHT22;13395;50.752;4.268;2022-12-29T11:16:39;12.00;99.90
25482;DHT22;13395;50.752;4.268;2022-12-29T11:19:09;12.00;99.90
25482;DHT22;13395;50.752;4.268;2022-12-29T11:21:45;11.90;99.90
25482;DHT22;13395;50.752;4.268;2022-12-29T11:24:24;11.90;99.90
25482;DHT22;13395;50.752;4.268;2022-12-29T11:26:51;11.90;99.90
25482;DHT22;13395;50.752;4.268;2022-12-29T11:31:51;11.70;99.90
25482;DHT22;13395;50.752;4.268;2022-12-29T11:34:33;11.80;99.90
25482;DHT22;13395;50.752;4.268;2022-12-29T11:39:50;11.80;99.90
25482;DHT22;13395;50.752;4.268;2022-12-29T11:42:17;11.80;99.90
25482;DHT22;13395;50.752;4.268;2022-12-29T11:44:44;11.70;99.90
25482;DHT22;13395;50.752;4.268;2022-12-29T11:47:13;11.70;99.90
25482;DHT22;13395;50.752;4.268;2022-12-29T11:49:39;11.70;99.90
25482;DHT22;13395;50.752;4.268;2022-12-29T11:52:04;11.50;99.90
25482;DHT22;13395;50.752;4.268;2022-12-29T11:54:33;11.50;99.90
25482;DHT22;13395;50.752;4.268;2022-12-29T11:57:08;11.50;99.90
25482;DHT22;13395;50.752;4.268;2022-12-29T11:59:36;11.50;99.90
25482;DHT22;13395;50.752;4.268;2022-12-29T12:02:18;11.60;99.90
25482;DHT22;13395;50.752;4.268;2022-12-29T12:04:46;11.70;99.90
25482;DHT22;13395;50.752;4.268;2022-12-29T12:07:19;11.70;99.90
25482;DHT22;13395;50.752;4.268;2022-12-29T12:09:57;11.60;99.90
25482;DHT22;13395;50.752;4.268;2022-12-29T12:12:43;11.70;99.90
25482;DHT22;13395;50.752;4.268;2022-12-29T12:15:20;11.70;99.90
25482;DHT22;13395;50.752;4.268;2022-12-29T12:17:49;11.50;99.90
25482;DHT22;13395;50.752;4.268;2022-12-29T12:20:22;11.50;99.90
25482;DHT22;13395;50.752;4.268;2022-12-29T12:23:08;11.60;99.90
25482;DHT22;13395;50.752;4.268;2022-12-29T12:25:38;11.60;99.90
25482;DHT22;13395;50.752;4.268;2022-12-29T12:28:11;11.60;99.90
25482;DHT22;13395;50.752;4.268;2022-12-29T12:30:40;11.60;99.90
25482;DHT22;13395;50.752;4.268;2022-12-29T12:33:15;11.60;99.90
25482;DHT22;13395;50.752;4.268;2022-12-29T12:40:58;11.60;99.90
25482;DHT22;13395;50.752;4.268;2022-12-29T12:43:37;11.50;99.90
25482;DHT22;13395;50.752;4.268;2022-12-29T12:48:40;11.60;99.90
25482;DHT22;13395;50.752;4.268;2022-12-29T12:51:15;11.60;99.90
25482;DHT22;13395;50.752;4.268;2022-12-29T13:12:07;11.80;99.90
25482;DHT22;13395;50.752;4.268;2022-12-29T13:14:39;11.70;99.90
25482;DHT22;13395;50.752;4.268;2022-12-29T13:22:45;11.40;99.90
25482;DHT22;13395;50.752;4.268;2022-12-29T13:27:46;11.30;99.90
25482;DHT22;13395;50.752;4.268;2022-12-29T13:30:19;11.40;99.90
25482;DHT22;13395;50.752;4.268;2022-12-29T13:35:35;11.50;99.90
25482;DHT22;13395;50.752;4.268;2022-12-29T13:40:36;11.50;99.90
25482;DHT22;13395;50.752;4.268;2022-12-29T13:43:04;11.60;99.90
25482;DHT22;13395;50.752;4.268;2022-12-29T13:45:31;11.60;99.90
25482;DHT22;13395;50.752;4.268;2022-12-29T13:48:00;11.80;99.90
25482;DHT22;13395;50.752;4.268;2022-12-29T13:50:28;12.10;99.90
25482;DHT22;13395;50.752;4.268;2022-12-29T13:55:27;12.20;99.90
25482;DHT22;13395;50.752;4.268;2022-12-29T13:57:58;12.20;99.90
25482;DHT22;13395;50.752;4.268;2022-12-29T14:00:26;12.00;99.90
25482;DHT22;13395;50.752;4.268;2022-12-29T14:06:02;11.80;99.90
25482;DHT22;13395;50.752;4.268;2022-12-29T14:08:28;11.70;99.90
25482;DHT22;13395;50.752;4.268;2022-12-29T14:10:53;11.60;99.90
25482;DHT22;13395;50.752;4.268;2022-12-29T14:13:20;11.60;99.90
25482;DHT22;13395;50.752;4.268;2022-12-29T14:15:53;11.60;99.90
25482;DHT22;13395;50.752;4.268;2022-12-29T14:18:21;11.60;99.90
25482;DHT22;13395;50.752;4.268;2022-12-29T14:28:29;11.70;99.90
25482;DHT22;13395;50.752;4.268;2022-12-29T14:30:56;11.80;99.90
25482;DHT22;13395;50.752;4.268;2022-12-29T14:33:23;11.90;99.90
25482;DHT22;13395;50.752;4.268;2022-12-29T14:35:51;11.90;99.90
25482;DHT22;13395;50.752;4.268;2022-12-29T14:38:24;12.00;99.90
25482;DHT22;13395;50.752;4.268;2022-12-29T14:40:51;11.80;99.90
25482;DHT22;13395;50.752;4.268;2022-12-29T14:43:24;11.80;99.90
25482;DHT22;13395;50.752;4.268;2022-12-29T14:45:52;11.70;99.90
25482;DHT22;13395;50.752;4.268;2022-12-29T14:48:37;11.60;99.90
25482;DHT22;13395;50.752;4.268;2022-12-29T14:51:16;11.60;99.90
25482;DHT22;13395;50.752;4.268;2022-12-29T14:53:44;11.50;99.90
25482;DHT22;13395;50.752;4.268;2022-12-29T14:56:11;11.50;99.90
25482;DHT22;13395;50.752;4.268;2022-12-29T14:58:53;11.50;99.90
25482;DHT22;13395;50.752;4.268;2022-12-29T15:01:24;11.40;99.90
25482;DHT22;13395;50.752;4.268;2022-12-29T15:03:50;11.40;99.90
25482;DHT22;13395;50.752;4.268;2022-12-29T15:06:17;11.30;99.90
25482;DHT22;13395;50.752;4.268;2022-12-29T15:11:22;11.00;99.90
25482;DHT22;13395;50.752;4.268;2022-12-29T15:13:48;10.70;99.90
25482;DHT22;13395;50.752;4.268;2022-12-29T15:18:52;10.20;99.90
25482;DHT22;13395;50.752;4.268;2022-12-29T15:21:19;10.10;99.90
25482;DHT22;13395;50.752;4.268;2022-12-29T15:23:46;10.00;99.90
25482;DHT22;13395;50.752;4.268;2022-12-29T15:26:13;10.00;99.90
25482;DHT22;13395;50.752;4.268;2022-12-29T15:28:46;10.00;99.90
25482;DHT22;13395;50.752;4.268;2022-12-29T15:31:13;9.90;99.90
25482;DHT22;13395;50.752;4.268;2022-12-29T15:33:40;9.90;99.90
25482;DHT22;13395;50.752;4.268;2022-12-29T15:36:10;9.80;99.90
25482;DHT22;13395;50.752;4.268;2022-12-29T15:38:36;9.80;99.90
25482;DHT22;13395;50.752;4.268;2022-12-29T15:41:05;9.80;99.90
25482;DHT22;13395;50.752;4.268;2022-12-29T15:43:41;9.80;99.90
25482;DHT22;13395;50.752;4.268;2022-12-29T15:46:10;9.70;99.90
25482;DHT22;13395;50.752;4.268;2022-12-29T15:48:36;9.80;99.90
25482;DHT22;13395;50.752;4.268;2022-12-29T15:51:03;9.80;99.90
25482;DHT22;13395;50.752;4.268;2022-12-29T15:53:29;9.80;99.90
25482;DHT22;13395;50.752;4.268;2022-12-29T15:56:06;9.70;99.90
25482;DHT22;13395;50.752;4.268;2022-12-29T15:58:39;9.70;99.90
25482;DHT22;13395;50.752;4.268;2022-12-29T16:01:15;9.60;99.90
25482;DHT22;13395;50.752;4.268;2022-12-29T16:03:41;9.60;99.90
25482;DHT22;13395;50.752;4.268;2022-12-29T16:06:08;9.60;99.90
25482;DHT22;13395;50.752;4.268;2022-12-29T16:08:35;9.60;99.90
25482;DHT22;13395;50.752;4.268;2022-12-29T16:11:27;9.60;99.90
25482;DHT22;13395;50.752;4.268;2022-12-29T16:13:50;9.60;99.90
25482;DHT22;13395;50.752;4.268;2022-12-29T16:16:21;9.70;99.90
25482;DHT22;13395;50.752;4.268;2022-12-29T16:18:49;9.60;99.90
25482;DHT22;13395;50.752;4.268;2022-12-29T16:21:16;9.70;99.90
25482;DHT22;13395;50.752;4.268;2022-12-29T16:23:43;9.60;99.90
25482;DHT22;13395;50.752;4.268;2022-12-29T16:26:15;9.60;99.90
25482;DHT22;13395;50.752;4.268;2022-12-29T16:28:42;9.60;99.90
25482;DHT22;13395;50.752;4.268;2022-12-29T16:31:18;9.60;99.90
25482;DHT22;13395;50.752;4.268;2022-12-29T16:41:33;9.50;99.90
25482;DHT22;13395;50.752;4.268;2022-12-29T16:44:21;9.50;99.90
25482;DHT22;13395;50.752;4.268;2022-12-29T16:47:05;9.40;99.90
25482;DHT22;13395;50.752;4.268;2022-12-29T16:49:42;9.40;99.90
25482;DHT22;13395;50.752;4.268;2022-12-29T16:52:12;9.40;99.90
25482;DHT22;13395;50.752;4.268;2022-12-29T16:54:38;9.40;99.90
25482;DHT22;13395;50.752;4.268;2022-12-29T16:57:04;9.40;99.90
25482;DHT22;13395;50.752;4.268;2022-12-29T17:01:59;9.40;99.90
25482;DHT22;13395;50.752;4.268;2022-12-29T17:04:26;9.50;99.90
25482;DHT22;13395;50.752;4.268;2022-12-29T17:06:51;9.50;99.90
25482;DHT22;13395;50.752;4.268;2022-12-29T17:11:43;9.50;99.90
25482;DHT22;13395;50.752;4.268;2022-12-29T17:14:28;9.60;99.90
25482;DHT22;13395;50.752;4.268;2022-12-29T17:16:55;9.70;99.90
25482;DHT22;13395;50.752;4.268;2022-12-29T17:19:25;9.60;99.90
25482;DHT22;13395;50.752;4.268;2022-12-29T17:21:51;9.70;99.90
25482;DHT22;13395;50.752;4.268;2022-12-29T17:24:18;9.60;99.90
25482;DHT22;13395;50.752;4.268;2022-12-29T17:26:45;9.60;99.90
25482;DHT22;13395;50.752;4.268;2022-12-29T17:29:19;9.60;99.90
25482;DHT22;13395;50.752;4.268;2022-12-29T17:31:45;9.50;99.90
25482;DHT22;13395;50.752;4.268;2022-12-29T17:34:11;9.50;99.90
25482;DHT22;13395;50.752;4.268;2022-12-29T17:36:37;9.50;99.90
25482;DHT22;13395;50.752;4.268;2022-12-29T17:39:04;9.30;99.90
25482;DHT22;13395;50.752;4.268;2022-12-29T17:41:30;9.30;99.90
25482;DHT22;13395;50.752;4.268;2022-12-29T17:43:56;9.30;99.90
25482;DHT22;13395;50.752;4.268;2022-12-29T17:46:23;9.20;99.90
25482;DHT22;13395;50.752;4.268;2022-12-29T17:48:48;9.10;99.90
25482;DHT22;13395;50.752;4.268;2022-12-29T17:51:14;9.10;99.90